Goodsprings, Nevada
Current Conditions -  °F | °C
As of 10:56 AM on Saturday 25 Oct 2014 (Local Time) from KHND Reporting Station
Clear Clear  
Wind Chill: 80°   Ceiling: Unl
Heat Index: 80°   Visibility: 10mi
Dew Point: 41°   Wind: 18mph
Humidity: 25%   Direction: 210°SSW
Pressure: 30.08"   Gusts: 24mph
Location:  35.8439°N, 115.475°W
Report Text: KHND 251756Z 21016G21KT 10SM CLR 27/05 A3008 RMK AO2 50004 T02660050 10266 20161 SLP167
Loading
Personal Weather Stations






























Interactive Weather Map
Tropical Storm Tracking
New forecast layout! Learn more

10-Day Weather Forecast

Advertisements
Track Severe Weather on mobile